Time;durP1;ratioP1;P1;durP2;ratioP2;P2;SDS_P1;SDS_P2;PMS_P1;PMS_P2;Temp;Humidity;BMP_temperature;BMP_pressure;BME280_temperature;BME280_humidity;BME280_pressure;Samples;Min_cycle;Max_cycle;Signal;HPM_P1;HPM_P2
2024/01/15 00:01:48;;;;;;;12.67;1.73;;;3.50;99.90;;;;;;4983135;28;37678;-79
2024/01/15 00:04:14;;;;;;;12.87;1.77;;;3.60;99.90;;;;;;5002504;28;37737;-79
2024/01/15 00:06:40;;;;;;;19.07;2.20;;;3.60;99.90;;;;;;4975605;28;37825;-78
2024/01/15 00:09:06;;;;;;;13.40;2.30;;;3.70;99.90;;;;;;4975257;28;37579;-79
2024/01/15 00:11:39;;;;;;;14.03;2.10;;;3.80;99.90;;;;;;4974823;28;38042;-80
2024/01/15 00:14:05;;;;;;;16.73;2.55;;;3.80;99.90;;;;;;4967851;28;38303;-79
2024/01/15 00:16:31;;;;;;;10.83;1.93;;;3.80;99.90;;;;;;4979775;28;37430;-79
2024/01/15 00:18:57;;;;;;;11.07;1.60;;;3.80;99.90;;;;;;4983887;28;36276;-79
2024/01/15 00:21:23;;;;;;;16.17;2.30;;;3.70;99.90;;;;;;4977889;28;38579;-79
2024/01/15 00:23:50;;;;;;;16.10;2.30;;;3.70;99.90;;;;;;4974120;28;37610;-79
2024/01/15 00:26:16;;;;;;;13.07;2.07;;;3.60;99.90;;;;;;4973820;28;36335;-79
2024/01/15 00:28:42;;;;;;;17.43;2.33;;;3.60;99.90;;;;;;4979065;28;36369;-79
2024/01/15 00:31:09;;;;;;;16.67;4.17;;;3.70;99.90;;;;;;4968237;28;37822;-79
2024/01/15 00:33:35;;;;;;;16.30;2.20;;;3.80;99.90;;;;;;4974673;28;37069;-80
2024/01/15 00:36:01;;;;;;;8.50;1.33;;;3.80;99.90;;;;;;4967663;28;37903;-77
2024/01/15 00:38:27;;;;;;;14.40;1.83;;;3.70;99.90;;;;;;4970539;28;36317;-78
2024/01/15 00:40:54;;;;;;;6.83;1.60;;;3.60;99.90;;;;;;4968411;28;38801;-77
2024/01/15 00:43:21;;;;;;;13.60;1.40;;;3.50;99.90;;;;;;4957293;28;37754;-79
2024/01/15 00:45:47;;;;;;;11.03;1.40;;;3.40;99.90;;;;;;4963551;28;40317;-79
2024/01/15 00:48:13;;;;;;;10.10;1.60;;;3.40;99.90;;;;;;4976207;28;38098;-79
2024/01/15 00:50:39;;;;;;;11.87;1.60;;;3.30;99.90;;;;;;4968042;28;38667;-79
2024/01/15 00:53:05;;;;;;;10.87;1.80;;;3.20;99.90;;;;;;4969306;28;39238;-79
2024/01/15 00:55:32;;;;;;;9.83;1.73;;;3.20;99.90;;;;;;4969247;28;37238;-79
2024/01/15 00:57:58;;;;;;;15.60;2.10;;;3.20;99.90;;;;;;4968445;28;38270;-79
2024/01/15 01:00:24;;;;;;;15.57;2.43;;;3.20;99.90;;;;;;4975727;28;39270;-79
2024/01/15 01:02:50;;;;;;;14.27;2.67;;;3.20;99.90;;;;;;4980899;28;37199;-79
2024/01/15 01:05:16;;;;;;;17.13;2.10;;;3.20;99.90;;;;;;4971275;28;36499;-79
2024/01/15 01:07:42;;;;;;;13.80;1.80;;;3.20;99.90;;;;;;4965353;28;36067;-79
2024/01/15 01:10:09;;;;;;;15.00;1.97;;;3.30;99.90;;;;;;4966541;28;39037;-79
2024/01/15 01:12:36;;;;;;;15.60;2.00;;;3.30;99.90;;;;;;4969124;28;37316;-79
2024/01/15 01:15:02;;;;;;;20.83;2.43;;;3.30;99.90;;;;;;4967753;28;36758;-79
2024/01/15 01:17:28;;;;;;;17.57;2.23;;;3.40;99.90;;;;;;5007253;28;35450;-79
2024/01/15 01:19:54;;;;;;;13.63;2.00;;;3.40;99.90;;;;;;4981175;28;37723;-79
2024/01/15 01:22:21;;;;;;;12.00;1.47;;;3.50;99.90;;;;;;4972382;28;40301;-79
2024/01/15 01:24:47;;;;;;;15.47;1.73;;;3.40;99.90;;;;;;4978113;28;38064;-79
2024/01/15 01:27:13;;;;;;;10.13;1.60;;;3.50;99.90;;;;;;4968986;28;36241;-79
2024/01/15 01:29:39;;;;;;;11.40;1.70;;;3.50;99.90;;;;;;4987661;28;38064;-79
2024/01/15 01:32:05;;;;;;;19.27;1.80;;;3.40;99.90;;;;;;4981149;28;37405;-79
2024/01/15 01:34:41;;;;;;;22.73;2.43;;;3.50;99.90;;;;;;4977205;28;37059;-79
2024/01/15 01:37:07;;;;;;;19.67;1.97;;;3.60;99.90;;;;;;4983918;28;37460;-79
2024/01/15 01:39:33;;;;;;;17.23;2.77;;;3.70;99.90;;;;;;4981094;28;39049;-79
2024/01/15 01:41:59;;;;;;;11.90;1.83;;;3.80;99.90;;;;;;4979602;28;38506;-79
2024/01/15 01:44:25;;;;;;;10.83;1.20;;;4.00;99.90;;;;;;4968481;28;36983;-78
2024/01/15 01:46:52;;;;;;;14.67;1.63;;;3.90;99.90;;;;;;4969061;28;36968;-78
2024/01/15 01:49:18;;;;;;;12.03;1.40;;;3.80;99.90;;;;;;4972423;28;38457;-79
2024/01/15 01:51:46;;;;;;;12.27;1.47;;;3.60;99.90;;;;;;4972544;28;36977;-79
2024/01/15 01:54:13;;;;;;;10.23;1.23;;;3.40;99.90;;;;;;4975225;28;38270;-78
2024/01/15 01:56:41;;;;;;;14.33;2.70;;;3.30;99.90;;;;;;4976796;28;36195;-79
2024/01/15 01:59:10;;;;;;;13.47;1.43;;;3.20;99.90;;;;;;4975532;28;39055;-79
2024/01/15 02:01:56;;;;;;;13.17;2.67;;;3.10;99.90;;;;;;5409003;23;37838;-76
2024/01/15 02:04:24;;;;;;;13.60;1.43;;;3.00;99.90;;;;;;4968397;28;35507;-77
2024/01/15 02:06:51;;;;;;;12.90;1.70;;;3.00;99.90;;;;;;5008856;28;38162;-78
2024/01/15 02:09:20;;;;;;;17.20;1.83;;;3.00;99.90;;;;;;5003329;28;37768;-77
2024/01/15 02:11:47;;;;;;;12.17;1.40;;;3.10;99.90;;;;;;5024772;28;37995;-77
2024/01/15 02:14:14;;;;;;;17.13;2.30;;;3.10;99.90;;;;;;5018923;28;38050;-76
2024/01/15 02:16:40;;;;;;;14.67;2.17;;;3.10;99.90;;;;;;5008454;28;36805;-76
2024/01/15 02:19:06;;;;;;;19.00;2.37;;;3.10;99.90;;;;;;5007630;28;38586;-76
2024/01/15 02:21:33;;;;;;;19.47;2.57;;;3.10;99.90;;;;;;5022285;28;36859;-76
2024/01/15 02:23:59;;;;;;;22.00;2.00;;;3.20;99.90;;;;;;5014372;28;38162;-76
2024/01/15 02:26:26;;;;;;;16.67;2.33;;;3.30;99.90;;;;;;4997212;28;36981;-76
2024/01/15 02:28:52;;;;;;;11.77;2.07;;;3.30;99.90;;;;;;4990662;28;38266;-77
2024/01/15 02:31:18;;;;;;;13.93;1.80;;;3.40;99.90;;;;;;5008912;28;37212;-76
2024/01/15 02:33:46;;;;;;;13.60;1.63;;;3.30;99.90;;;;;;5010290;28;36444;-76
2024/01/15 02:36:12;;;;;;;16.13;1.50;;;3.40;99.90;;;;;;4995702;28;36552;-76
2024/01/15 02:38:38;;;;;;;6.83;0.80;;;3.30;99.90;;;;;;5001265;28;37637;-75
2024/01/15 02:41:04;;;;;;;7.20;1.33;;;3.30;99.90;;;;;;5001509;28;37171;-77
2024/01/15 02:43:30;;;;;;;9.30;1.07;;;3.30;99.90;;;;;;5014710;28;37708;-76
2024/01/15 02:45:56;;;;;;;3.70;0.73;;;3.30;99.90;;;;;;5008900;28;35943;-76
2024/01/15 02:48:23;;;;;;;3.97;0.77;;;3.40;99.90;;;;;;5001921;28;37931;-76
2024/01/15 02:50:49;;;;;;;7.53;1.03;;;3.30;99.90;;;;;;5020134;28;39411;-75
2024/01/15 02:53:15;;;;;;;5.93;0.90;;;3.30;99.90;;;;;;5010403;28;39065;-77
2024/01/15 02:55:41;;;;;;;9.63;1.07;;;3.30;99.90;;;;;;5010648;28;37580;-75
2024/01/15 02:58:07;;;;;;;5.83;0.90;;;3.20;99.90;;;;;;5011790;28;39956;-77
2024/01/15 03:00:33;;;;;;;5.90;1.03;;;3.10;99.90;;;;;;5005032;28;37352;-77
2024/01/15 03:02:59;;;;;;;4.37;1.10;;;3.10;99.90;;;;;;5010592;28;36663;-77
2024/01/15 03:05:26;;;;;;;6.40;0.90;;;3.10;99.90;;;;;;5000229;28;35802;-76
2024/01/15 03:07:52;;;;;;;8.97;1.80;;;3.10;99.90;;;;;;5024202;28;38614;-76
2024/01/15 03:10:18;;;;;;;5.00;0.90;;;3.20;99.90;;;;;;4999525;28;38217;-76
2024/01/15 03:12:44;;;;;;;9.80;1.07;;;3.20;99.90;;;;;;5007322;28;36599;-75
2024/01/15 03:15:10;;;;;;;9.33;1.00;;;3.20;99.90;;;;;;5015094;28;37845;-76
2024/01/15 03:17:36;;;;;;;10.70;1.33;;;3.20;99.90;;;;;;5013525;28;38332;-76
2024/01/15 03:20:03;;;;;;;10.70;1.37;;;3.20;99.90;;;;;;5022606;28;39099;-76
2024/01/15 03:22:29;;;;;;;9.13;1.57;;;3.10;99.90;;;;;;5012845;28;47330;-76
2024/01/15 03:24:55;;;;;;;9.53;1.23;;;3.00;99.90;;;;;;5015049;28;39974;-77
2024/01/15 03:27:21;;;;;;;7.87;1.37;;;3.00;99.90;;;;;;5020523;28;38613;-77
2024/01/15 03:29:47;;;;;;;8.27;1.50;;;2.90;99.90;;;;;;5012795;28;39601;-76
2024/01/15 03:32:13;;;;;;;14.13;1.70;;;2.90;99.90;;;;;;5026920;28;36483;-76
2024/01/15 03:34:40;;;;;;;6.70;1.40;;;2.80;99.90;;;;;;5014199;28;36143;-75
2024/01/15 03:37:06;;;;;;;11.63;1.53;;;2.70;99.90;;;;;;5018119;28;38166;-75
2024/01/15 03:39:32;;;;;;;6.13;1.20;;;2.60;99.90;;;;;;5024758;28;36702;-76
2024/01/15 03:41:58;;;;;;;7.50;1.53;;;2.60;99.90;;;;;;5021529;28;37858;-76
2024/01/15 03:44:24;;;;;;;7.70;1.30;;;2.60;99.90;;;;;;5007618;28;36055;-76
2024/01/15 03:46:50;;;;;;;9.80;0.93;;;2.70;99.90;;;;;;5005052;28;38805;-76
2024/01/15 03:49:16;;;;;;;20.20;1.77;;;2.90;99.90;;;;;;5019974;28;38361;-77
2024/01/15 03:51:42;;;;;;;5.37;0.73;;;3.00;99.90;;;;;;5003070;28;37512;-78
2024/01/15 03:54:09;;;;;;;11.47;2.23;;;3.10;99.90;;;;;;5013021;28;36020;-77
2024/01/15 03:56:35;;;;;;;5.47;0.63;;;3.10;99.90;;;;;;5025051;28;38892;-76
2024/01/15 03:59:01;;;;;;;8.03;1.00;;;3.00;99.90;;;;;;5011945;28;37687;-77
2024/01/15 04:01:27;;;;;;;2.23;0.47;;;3.00;99.90;;;;;;5018171;28;38285;-77
2024/01/15 04:03:53;;;;;;;5.17;0.40;;;2.80;99.90;;;;;;5005406;28;36239;-76
2024/01/15 04:06:19;;;;;;;1.93;0.30;;;2.80;99.90;;;;;;5011282;28;37707;-76
2024/01/15 04:08:45;;;;;;;2.47;0.40;;;2.70;99.90;;;;;;5006125;28;38082;-77
2024/01/15 04:11:11;;;;;;;2.53;0.20;;;2.60;99.90;;;;;;5017858;28;37193;-76
2024/01/15 04:13:38;;;;;;;0.83;0.27;;;2.70;99.90;;;;;;5006496;28;35817;-76
2024/01/15 04:16:04;;;;;;;2.73;0.40;;;2.60;99.90;;;;;;5016638;28;37738;-76
2024/01/15 04:18:30;;;;;;;2.93;0.57;;;2.60;99.90;;;;;;5001758;28;37595;-77
2024/01/15 04:20:56;;;;;;;2.57;0.57;;;2.60;99.90;;;;;;5011156;28;38481;-76
2024/01/15 04:23:23;;;;;;;4.77;0.50;;;2.60;99.90;;;;;;5003636;28;36531;-76
2024/01/15 04:25:49;;;;;;;4.13;0.50;;;2.70;99.90;;;;;;5011959;28;39600;-77
2024/01/15 04:28:15;;;;;;;10.47;0.80;;;2.70;99.90;;;;;;5019812;28;38518;-78
2024/01/15 04:30:41;;;;;;;7.53;0.87;;;2.70;99.90;;;;;;5009453;28;39197;-76
2024/01/15 04:33:07;;;;;;;5.17;0.73;;;2.80;99.90;;;;;;5017413;28;36949;-76
2024/01/15 04:35:34;;;;;;;7.40;1.03;;;2.90;99.90;;;;;;5014637;28;38244;-78
2024/01/15 04:38:00;;;;;;;5.37;0.87;;;2.90;99.90;;;;;;5023659;28;38807;-77
2024/01/15 04:40:27;;;;;;;22.53;2.27;;;2.80;99.90;;;;;;5019531;28;47462;-77
2024/01/15 04:42:54;;;;;;;8.17;1.07;;;2.80;99.90;;;;;;5018731;28;38342;-77
2024/01/15 04:45:22;;;;;;;4.83;0.80;;;2.70;99.90;;;;;;5014964;28;38606;-77
2024/01/15 04:47:49;;;;;;;8.83;1.10;;;2.70;99.90;;;;;;5020831;28;39242;-76
2024/01/15 04:50:15;;;;;;;8.67;1.20;;;2.70;99.90;;;;;;5035923;28;37895;-76
2024/01/15 04:52:41;;;;;;;7.90;1.20;;;2.60;99.90;;;;;;5005391;28;37034;-76
2024/01/15 04:55:08;;;;;;;10.47;0.87;;;2.60;99.90;;;;;;5007936;28;38941;-78
2024/01/15 04:57:34;;;;;;;4.90;0.60;;;2.50;99.90;;;;;;5006486;28;38605;-78
2024/01/15 05:00:00;;;;;;;9.30;1.10;;;2.60;99.90;;;;;;5027898;28;36895;-78
2024/01/15 05:02:26;;;;;;;7.70;0.70;;;2.70;99.90;;;;;;5013473;28;36636;-76
2024/01/15 05:04:52;;;;;;;8.13;0.90;;;2.70;99.90;;;;;;5003348;28;39424;-76
2024/01/15 05:07:18;;;;;;;8.93;1.00;;;2.80;99.90;;;;;;5001758;28;37137;-76
2024/01/15 05:09:44;;;;;;;9.33;1.10;;;2.80;99.90;;;;;;5011287;28;36629;-75
2024/01/15 05:12:11;;;;;;;8.80;0.97;;;2.70;99.90;;;;;;5026217;28;36926;-75
2024/01/15 05:14:37;;;;;;;6.03;1.10;;;2.50;99.90;;;;;;5018275;28;37998;-75
2024/01/15 05:17:03;;;;;;;8.00;1.03;;;2.50;99.90;;;;;;4999821;28;38410;-76
2024/01/15 05:19:29;;;;;;;5.90;1.00;;;2.40;99.90;;;;;;5014616;28;37192;-75
2024/01/15 05:21:55;;;;;;;6.80;0.90;;;2.40;99.90;;;;;;4999402;28;37532;-75
2024/01/15 05:24:22;;;;;;;9.60;1.67;;;2.50;99.90;;;;;;5022337;28;38540;-77
2024/01/15 05:26:48;;;;;;;5.83;1.13;;;2.50;99.90;;;;;;5019533;28;38045;-76
2024/01/15 05:29:14;;;;;;;8.97;0.80;;;2.60;99.90;;;;;;5015458;28;37720;-76
2024/01/15 05:31:40;;;;;;;8.23;1.70;;;2.60;99.90;;;;;;5012190;28;36894;-76
2024/01/15 05:34:06;;;;;;;6.87;1.30;;;2.60;99.90;;;;;;5004534;28;39216;-76
2024/01/15 05:36:32;;;;;;;4.07;0.63;;;2.50;99.90;;;;;;5017622;28;39171;-76
2024/01/15 05:38:58;;;;;;;8.30;0.73;;;2.30;99.90;;;;;;5025199;28;37629;-76
2024/01/15 05:41:24;;;;;;;4.47;0.70;;;2.00;99.90;;;;;;5009502;28;37301;-76
2024/01/15 05:43:50;;;;;;;9.00;0.73;;;1.80;99.90;;;;;;5018000;28;37909;-78
2024/01/15 05:46:16;;;;;;;4.93;0.70;;;1.60;99.90;;;;;;5028359;28;40006;-78
2024/01/15 05:48:43;;;;;;;6.77;0.70;;;1.50;99.90;;;;;;5014651;28;37532;-79
2024/01/15 05:51:09;;;;;;;7.77;0.90;;;1.40;99.90;;;;;;5000906;28;36196;-78
2024/01/15 05:53:36;;;;;;;8.43;1.07;;;1.50;99.90;;;;;;5006746;28;40585;-78
2024/01/15 05:56:02;;;;;;;3.97;0.93;;;1.50;99.90;;;;;;5013292;28;37454;-79
2024/01/15 05:58:28;;;;;;;7.53;1.20;;;1.60;99.90;;;;;;5025015;28;38128;-79
2024/01/15 06:00:54;;;;;;;4.37;0.63;;;1.60;99.90;;;;;;5019595;28;36939;-80
2024/01/15 06:03:20;;;;;;;4.87;1.30;;;1.80;99.90;;;;;;5021698;28;39052;-78
2024/01/15 06:05:46;;;;;;;8.23;1.47;;;1.80;99.90;;;;;;5016193;28;37091;-78
2024/01/15 06:08:14;;;;;;;6.87;1.30;;;1.80;99.90;;;;;;5009179;28;37573;-78
2024/01/15 06:10:40;;;;;;;7.93;1.60;;;1.90;99.90;;;;;;5023850;28;37122;-78
2024/01/15 06:13:07;;;;;;;7.07;1.90;;;1.90;99.90;;;;;;5007900;28;39073;-79
2024/01/15 06:15:33;;;;;;;6.37;1.83;;;2.00;99.90;;;;;;5014100;28;38536;-78
2024/01/15 06:17:59;;;;;;;6.87;1.40;;;2.10;99.90;;;;;;5025457;28;37441;-78
2024/01/15 06:20:25;;;;;;;9.43;1.40;;;2.00;99.90;;;;;;5005792;28;37409;-77
2024/01/15 06:22:51;;;;;;;8.93;1.30;;;2.00;99.90;;;;;;5022295;28;38547;-77
2024/01/15 06:25:17;;;;;;;11.73;1.03;;;2.00;99.90;;;;;;5014514;28;38746;-79
2024/01/15 06:27:43;;;;;;;9.97;0.97;;;1.90;99.90;;;;;;5009909;28;37990;-80
2024/01/15 06:30:10;;;;;;;5.27;0.90;;;1.80;99.90;;;;;;5000731;28;35928;-79
2024/01/15 06:32:36;;;;;;;3.60;0.70;;;1.50;99.90;;;;;;5011662;28;39599;-80
2024/01/15 06:35:03;;;;;;;5.47;0.77;;;1.50;99.90;;;;;;5013588;28;36843;-80
2024/01/15 06:37:29;;;;;;;2.93;0.90;;;1.40;99.90;;;;;;5007715;28;36726;-81
2024/01/15 06:39:55;;;;;;;4.23;1.10;;;1.50;99.90;;;;;;5002092;28;36131;-81
2024/01/15 06:42:21;;;;;;;6.10;1.13;;;1.50;99.90;;;;;;5018404;28;38189;-82
2024/01/15 06:44:48;;;;;;;9.50;1.40;;;1.60;99.90;;;;;;4989674;28;37269;-80
2024/01/15 06:47:14;;;;;;;4.63;1.40;;;1.60;99.90;;;;;;4988876;28;35955;-79
2024/01/15 06:49:43;;;;;;;10.47;1.87;;;1.70;99.90;;;;;;4997250;28;37470;-81
2024/01/15 06:52:13;;;;;;;9.47;2.03;;;1.70;99.90;;;;;;5016993;28;37935;-80
2024/01/15 06:54:39;;;;;;;7.53;1.13;;;1.70;99.90;;;;;;4998055;28;37463;-80
2024/01/15 06:57:06;;;;;;;11.87;1.17;;;1.80;99.90;;;;;;5012410;28;39008;-81
2024/01/15 06:59:33;;;;;;;11.93;1.73;;;1.80;99.90;;;;;;5006981;28;37045;-82
2024/01/15 07:01:59;;;;;;;14.37;1.90;;;1.90;99.90;;;;;;5013302;28;37460;-79
2024/01/15 07:04:25;;;;;;;8.80;2.10;;;2.00;99.90;;;;;;4993652;28;38288;-79
2024/01/15 07:06:52;;;;;;;6.30;1.37;;;2.00;99.90;;;;;;4991217;28;35791;-80
2024/01/15 07:09:18;;;;;;;10.80;1.73;;;2.00;99.90;;;;;;5012918;28;36755;-78
2024/01/15 07:11:46;;;;;;;12.30;1.63;;;1.80;99.90;;;;;;4990087;28;37856;-79
2024/01/15 07:14:12;;;;;;;12.13;2.10;;;1.80;99.90;;;;;;5010616;28;38297;-78
2024/01/15 07:16:38;;;;;;;10.33;2.00;;;1.80;99.90;;;;;;4991906;28;36669;-81
2024/01/15 07:19:05;;;;;;;9.53;1.53;;;1.90;99.90;;;;;;5011353;28;36821;-77
2024/01/15 07:21:32;;;;;;;5.77;1.20;;;2.10;99.90;;;;;;4984408;28;37727;-79
2024/01/15 07:23:58;;;;;;;8.60;1.10;;;2.10;99.90;;;;;;4993794;28;38043;-78
2024/01/15 07:26:25;;;;;;;8.17;1.00;;;2.10;99.90;;;;;;4990806;28;38573;-79
2024/01/15 07:28:51;;;;;;;8.73;1.20;;;2.10;99.90;;;;;;4988951;28;36439;-79
2024/01/15 07:31:17;;;;;;;5.77;0.90;;;2.10;99.90;;;;;;4997712;28;37369;-78
2024/01/15 07:33:43;;;;;;;12.27;1.43;;;2.10;99.90;;;;;;5011476;28;38888;-79
2024/01/15 07:36:13;;;;;;;12.87;1.23;;;2.10;99.90;;;;;;4991519;28;36517;-79
2024/01/15 07:38:39;;;;;;;9.37;1.67;;;2.10;99.90;;;;;;5009849;28;36446;-79
2024/01/15 07:41:05;;;;;;;7.80;1.20;;;2.20;99.90;;;;;;4991620;28;38497;-78
2024/01/15 07:43:31;;;;;;;10.10;1.47;;;2.30;99.90;;;;;;4994104;28;38294;-79
2024/01/15 07:45:58;;;;;;;10.20;1.60;;;2.40;99.90;;;;;;5008946;28;37233;-78
2024/01/15 07:48:24;;;;;;;5.30;1.30;;;2.40;99.90;;;;;;5006856;28;36931;-80
2024/01/15 07:50:50;;;;;;;8.47;1.30;;;2.50;99.90;;;;;;5000587;28;38598;-77
2024/01/15 07:53:16;;;;;;;2.50;0.93;;;2.40;99.90;;;;;;4981618;28;37292;-77
2024/01/15 07:55:42;;;;;;;8.27;1.20;;;2.30;99.90;;;;;;5005812;28;37168;-77
2024/01/15 07:58:08;;;;;;;8.80;1.30;;;2.20;99.90;;;;;;4987795;28;38964;-77
2024/01/15 08:00:35;;;;;;;3.37;0.97;;;2.20;99.90;;;;;;4989613;28;39140;-77
2024/01/15 08:03:02;;;;;;;10.40;1.50;;;2.20;99.90;;;;;;4987249;28;37156;-77
2024/01/15 08:05:28;;;;;;;10.80;1.80;;;2.20;99.90;;;;;;5005444;28;49015;-77
2024/01/15 08:07:54;;;;;;;14.17;1.93;;;2.30;99.90;;;;;;4985890;28;36823;-77
2024/01/15 08:10:20;;;;;;;10.77;2.30;;;2.40;99.90;;;;;;4999570;28;39843;-77
2024/01/15 08:12:47;;;;;;;14.40;2.03;;;2.50;99.90;;;;;;4987465;28;37267;-77
2024/01/15 08:15:13;;;;;;;8.20;1.83;;;2.50;99.90;;;;;;4984410;28;38502;-77
2024/01/15 08:17:39;;;;;;;11.87;1.63;;;2.40;99.90;;;;;;4985666;28;35728;-77
2024/01/15 08:20:05;;;;;;;11.87;1.37;;;2.50;99.90;;;;;;5000040;28;38848;-78
2024/01/15 08:22:31;;;;;;;10.27;1.57;;;2.40;99.90;;;;;;4983704;28;37399;-78
2024/01/15 08:24:58;;;;;;;7.40;1.50;;;2.40;99.90;;;;;;4988877;28;36055;-79
2024/01/15 08:27:24;;;;;;;8.50;1.60;;;2.40;99.90;;;;;;4994851;28;35828;-78
2024/01/15 08:29:50;;;;;;;10.33;1.33;;;2.30;99.90;;;;;;5001933;28;40476;-78
2024/01/15 08:32:16;;;;;;;7.30;0.83;;;2.50;99.90;;;;;;5006829;28;38002;-79
2024/01/15 08:34:43;;;;;;;13.63;1.23;;;2.60;99.90;;;;;;4988124;28;37357;-78
2024/01/15 08:37:09;;;;;;;9.13;0.90;;;2.60;99.90;;;;;;5004176;28;36947;-78
2024/01/15 08:39:38;;;;;;;7.47;1.43;;;2.70;99.90;;;;;;4983631;28;37422;-78
2024/01/15 08:42:05;;;;;;;12.07;1.33;;;2.70;99.90;;;;;;5004877;28;38917;-79
2024/01/15 08:44:31;;;;;;;12.87;1.40;;;2.70;99.90;;;;;;5011660;28;39837;-79
2024/01/15 08:46:57;;;;;;;9.17;1.53;;;2.70;99.90;;;;;;4991711;28;36033;-79
2024/01/15 08:49:24;;;;;;;9.10;1.97;;;2.80;99.90;;;;;;5005442;28;37917;-79
2024/01/15 08:51:50;;;;;;;15.00;1.77;;;2.80;99.90;;;;;;5000285;28;37923;-79
2024/01/15 08:54:16;;;;;;;13.47;1.13;;;2.80;99.90;;;;;;4986402;28;36798;-79
2024/01/15 08:56:42;;;;;;;11.73;1.40;;;2.80;99.90;;;;;;4987486;28;35625;-78
2024/01/15 08:59:08;;;;;;;11.57;1.47;;;2.80;99.90;;;;;;5000533;28;40104;-78
2024/01/15 09:01:35;;;;;;;8.90;1.87;;;2.80;99.90;;;;;;5004213;28;38150;-79
2024/01/15 09:04:01;;;;;;;13.53;1.50;;;2.80;99.90;;;;;;4988148;28;36312;-79
2024/01/15 09:06:27;;;;;;;6.73;1.10;;;2.80;99.90;;;;;;4990202;28;47169;-79
2024/01/15 09:08:53;;;;;;;10.50;1.40;;;2.80;99.90;;;;;;4991630;28;37853;-79
2024/01/15 09:11:19;;;;;;;9.13;1.30;;;3.00;99.90;;;;;;4993485;28;37137;-80
2024/01/15 09:13:45;;;;;;;7.37;0.70;;;3.10;99.90;;;;;;4998544;28;37911;-76
2024/01/15 09:16:12;;;;;;;9.17;1.20;;;3.20;99.90;;;;;;5018359;28;36765;-77
2024/01/15 09:18:38;;;;;;;12.70;1.33;;;3.20;99.90;;;;;;4989234;28;37576;-78
2024/01/15 09:21:05;;;;;;;12.13;1.43;;;3.10;99.90;;;;;;4994252;28;38250;-79
2024/01/15 09:23:31;;;;;;;12.70;1.67;;;3.10;99.90;;;;;;5001562;28;37444;-77
2024/01/15 09:25:57;;;;;;;7.93;0.90;;;3.00;99.90;;;;;;5014515;28;36980;-77
2024/01/15 09:28:23;;;;;;;11.00;1.10;;;3.00;99.90;;;;;;5019418;28;39647;-78
2024/01/15 09:30:49;;;;;;;7.77;0.90;;;3.00;99.90;;;;;;4986582;28;37287;-77
2024/01/15 09:33:15;;;;;;;8.73;1.10;;;3.00;99.90;;;;;;4984130;28;36945;-77
2024/01/15 09:35:41;;;;;;;6.33;1.17;;;3.10;99.90;;;;;;5005804;28;38630;-77
2024/01/15 09:38:07;;;;;;;5.50;0.80;;;3.10;99.90;;;;;;4987156;28;37454;-77
2024/01/15 09:40:33;;;;;;;5.77;1.17;;;3.10;99.90;;;;;;4986411;28;37588;-79
2024/01/15 09:43:01;;;;;;;9.30;1.27;;;3.00;99.90;;;;;;5008044;28;36864;-78
2024/01/15 09:45:27;;;;;;;3.87;0.70;;;3.00;99.90;;;;;;5005149;28;47494;-77
2024/01/15 09:47:54;;;;;;;2.90;0.70;;;2.90;99.90;;;;;;4985706;28;38754;-77
2024/01/15 09:50:20;;;;;;;5.70;1.10;;;2.90;99.90;;;;;;4996759;28;36959;-77
2024/01/15 09:52:47;;;;;;;4.60;1.00;;;2.90;99.90;;;;;;5008593;28;37608;-78
2024/01/15 09:55:17;;;;;;;7.60;1.70;;;3.00;99.90;;;;;;4982070;28;36516;-77
2024/01/15 09:57:46;;;;;;;9.67;2.63;;;3.00;99.90;;;;;;5000626;28;38733;-78
2024/01/15 10:00:14;;;;;;;5.80;1.57;;;3.00;99.90;;;;;;4966999;28;39032;-78
2024/01/15 10:02:41;;;;;;;12.40;2.00;;;3.00;99.90;;;;;;4979211;28;36030;-78
2024/01/15 10:05:08;;;;;;;8.97;1.20;;;3.00;99.90;;;;;;4988444;28;36120;-77
2024/01/15 10:07:36;;;;;;;9.37;1.73;;;3.10;99.90;;;;;;4991379;28;38124;-77
2024/01/15 10:10:05;;;;;;;7.40;1.90;;;3.30;99.90;;;;;;5009423;28;37987;-77
2024/01/15 10:12:32;;;;;;;6.93;2.40;;;3.60;99.90;;;;;;4988273;28;47256;-77
2024/01/15 10:14:58;;;;;;;10.77;1.13;;;3.70;99.90;;;;;;4998072;28;37885;-76
2024/01/15 10:17:28;;;;;;;10.07;1.70;;;3.40;99.90;;;;;;4984429;28;37616;-78
2024/01/15 10:19:56;;;;;;;9.10;1.10;;;2.80;99.90;;;;;;4988020;28;36989;-77
2024/01/15 10:22:22;;;;;;;11.90;1.50;;;2.50;99.90;;;;;;4983169;28;40239;-77
2024/01/15 10:24:48;;;;;;;10.00;1.70;;;2.50;99.90;;;;;;4979654;28;36078;-76
2024/01/15 10:27:14;;;;;;;8.37;1.40;;;2.40;99.90;;;;;;4997456;28;37699;-77
2024/01/15 10:29:42;;;;;;;13.97;2.60;;;2.50;99.90;;;;;;4983296;28;38274;-77
2024/01/15 10:32:11;;;;;;;10.53;1.33;;;2.50;99.90;;;;;;4984903;28;38059;-76
2024/01/15 10:34:39;;;;;;;14.00;1.70;;;2.50;99.90;;;;;;4986298;28;36015;-76
2024/01/15 10:37:08;;;;;;;12.40;1.30;;;2.40;99.90;;;;;;4987926;28;39068;-76
2024/01/15 10:39:34;;;;;;;7.10;1.30;;;2.40;99.90;;;;;;4985857;28;37443;-76
2024/01/15 10:42:01;;;;;;;8.73;1.47;;;2.60;99.90;;;;;;4981502;28;36463;-76
2024/01/15 10:44:27;;;;;;;5.67;1.20;;;2.70;99.90;;;;;;4997715;28;48519;-76
2024/01/15 10:46:56;;;;;;;9.30;1.20;;;2.80;99.90;;;;;;4979935;28;38160;-77
2024/01/15 10:49:25;;;;;;;9.23;1.10;;;2.80;99.90;;;;;;4982006;28;38742;-77
2024/01/15 10:51:53;;;;;;;7.03;0.93;;;2.80;99.90;;;;;;5001474;28;37543;-77
2024/01/15 10:54:20;;;;;;;5.83;0.70;;;2.80;99.90;;;;;;4985518;28;38086;-76
2024/01/15 10:56:47;;;;;;;5.50;1.03;;;2.70;99.90;;;;;;5019660;28;39533;-77
2024/01/15 10:59:14;;;;;;;3.90;0.90;;;2.70;99.90;;;;;;5002320;28;36256;-76
2024/01/15 11:02:00;;;;;;;5.77;1.70;;;2.70;99.90;;;;;;4985964;28;36685;-77
2024/01/15 11:04:28;;;;;;;5.87;2.30;;;2.70;99.90;;;;;;4956904;28;35244;-77
2024/01/15 11:06:55;;;;;;;5.17;1.00;;;2.60;99.90;;;;;;4993669;28;38009;-77
2024/01/15 11:09:42;;;;;;;1.27;0.30;;;2.60;99.90;;;;;;4997840;28;38503;-77
2024/01/15 11:12:11;;;;;;;2.73;0.47;;;2.40;99.90;;;;;;4981447;28;36855;-76
2024/01/15 11:15:09;;;;;;;2.97;0.57;;;2.50;99.90;;;;;;4972716;28;36293;-77
2024/01/15 11:17:59;;;;;;;4.87;0.50;;;2.60;99.90;;;;;;4988877;28;47623;-78
2024/01/15 11:20:36;;;;;;;4.57;0.50;;;2.70;99.90;;;;;;4995896;28;38881;-78
2024/01/15 11:23:02;;;;;;;4.43;0.80;;;2.70;99.90;;;;;;4983010;28;38017;-77
2024/01/15 11:25:36;;;;;;;5.47;1.00;;;2.60;99.90;;;;;;4991362;28;38962;-78
2024/01/15 11:28:02;;;;;;;5.93;1.43;;;2.60;99.90;;;;;;4957716;28;40938;-78
2024/01/15 11:30:37;;;;;;;8.33;1.80;;;2.70;99.90;;;;;;4974710;28;37046;-78
2024/01/15 11:33:29;;;;;;;6.10;1.00;;;2.70;99.90;;;;;;4998836;28;35030;-77
2024/01/15 11:35:56;;;;;;;11.90;1.40;;;2.70;99.90;;;;;;5012934;28;37549;-78
2024/01/15 11:38:29;;;;;;;7.33;1.37;;;2.70;99.90;;;;;;4988169;28;37678;-78
2024/01/15 11:40:55;;;;;;;5.27;1.33;;;2.70;99.90;;;;;;5003509;28;38348;-79
2024/01/15 11:43:41;;;;;;;7.97;1.80;;;2.80;99.90;;;;;;5015836;28;38669;-79
2024/01/15 11:46:12;;;;;;;9.30;1.33;;;3.00;99.90;;;;;;5001230;28;35953;-79
2024/01/15 11:48:44;;;;;;;13.60;1.27;;;3.10;99.90;;;;;;4997965;28;40338;-79
2024/01/15 11:51:29;;;;;;;8.82;1.52;;;3.40;99.90;;;;;;5009942;28;37241;-78
2024/01/15 11:54:03;;;;;;;10.50;1.33;;;3.50;99.90;;;;;;5015104;28;36971;-78
2024/01/15 11:56:45;;;;;;;8.37;1.83;;;3.40;99.90;;;;;;4980236;28;47231;-78
2024/01/15 11:59:11;;;;;;;9.23;1.30;;;3.40;99.90;;;;;;5004621;28;37670;-78
2024/01/15 12:01:37;;;;;;;6.57;1.03;;;3.30;99.90;;;;;;4990230;28;38850;-78
2024/01/15 12:04:39;;;;;;;5.00;1.10;;;3.20;99.90;;;;;;5002196;28;38630;-78
2024/01/15 12:07:05;;;;;;;6.70;1.03;;;3.10;99.90;;;;;;5003764;28;34009;-78
2024/01/15 12:09:31;;;;;;;7.07;1.10;;;2.70;99.90;;;;;;5007008;28;38951;-77
2024/01/15 12:12:14;;;;;;;6.67;1.37;;;2.50;99.90;;;;;;4985348;28;38365;-77
2024/01/15 12:14:40;;;;;;;3.70;1.00;;;2.40;99.90;;;;;;5006459;28;47859;-78
2024/01/15 12:17:07;;;;;;;9.13;1.13;;;2.40;99.90;;;;;;4969538;28;35838;-77
2024/01/15 12:22:35;;;;;;;7.30;1.20;;;2.40;99.90;;;;;;5007561;28;38633;-78
2024/01/15 12:25:01;;;;;;;8.15;1.63;;;2.40;99.90;;;;;;4991448;28;38846;-78
2024/01/15 12:27:27;;;;;;;6.83;1.50;;;2.40;99.90;;;;;;4988549;28;36093;-79
2024/01/15 12:30:03;;;;;;;12.43;1.80;;;2.40;99.90;;;;;;4992142;28;38018;-78
2024/01/15 12:33:06;;;;;;;8.17;1.43;;;2.40;99.90;;;;;;4974671;28;47150;-78
2024/01/15 12:35:45;;;;;;;15.60;1.83;;;2.40;99.90;;;;;;4988682;28;47690;-78
2024/01/15 12:38:37;;;;;;;12.23;1.90;;;2.40;99.90;;;;;;5009967;28;37253;-79
2024/01/15 12:42:19;;;;;;;13.60;1.98;;;2.50;99.90;;;;;;4957495;28;37573;-78
2024/01/15 12:44:39;;;;;;;18.90;2.50;;;2.80;99.90;;;;;;4897571;28;48319;-78
2024/01/15 12:47:06;;;;;;;12.63;2.77;;;3.00;99.90;;;;;;4968676;28;37158;-78
2024/01/15 12:49:32;;;;;;;13.67;2.53;;;3.20;99.90;;;;;;4986841;28;35767;-77
2024/01/15 12:51:59;;;;;;;17.27;2.57;;;3.50;99.90;;;;;;5000592;28;37209;-78
2024/01/15 12:54:26;;;;;;;11.50;2.03;;;3.50;99.90;;;;;;4999814;28;35981;-75
2024/01/15 12:56:52;;;;;;;10.17;2.00;;;3.70;99.90;;;;;;4992470;28;37024;-78
2024/01/15 12:59:41;;;;;;;15.13;3.53;;;3.80;99.90;;;;;;4991906;28;39326;-78